createdAt,value
2022-07-31T00:02:09.548Z,2.83
2022-07-31T00:04:41.618Z,2.50
2022-07-31T00:07:12.247Z,2.53
2022-07-31T00:09:53.449Z,2.70
2022-07-31T00:12:22.917Z,2.67
2022-07-31T00:14:50.596Z,3.20
2022-07-31T00:17:20.462Z,3.28
2022-07-31T00:19:53.902Z,2.42
2022-07-31T00:22:24.029Z,2.50
2022-07-31T00:25:06.433Z,2.22
2022-07-31T00:27:41.591Z,2.70
2022-07-31T00:30:17.560Z,3.08
2022-07-31T00:32:53.380Z,3.05
2022-07-31T00:35:25.796Z,2.55
2022-07-31T00:38:02.145Z,2.88
2022-07-31T00:41:03.168Z,2.40
2022-07-31T00:43:36.258Z,2.83
2022-07-31T00:46:07.401Z,2.47
2022-07-31T00:48:44.620Z,2.40
2022-07-31T00:51:12.710Z,2.50
2022-07-31T00:53:45.458Z,2.28
2022-07-31T00:56:20.729Z,2.60
2022-07-31T00:58:52.147Z,2.33
2022-07-31T01:01:21.384Z,2.65
2022-07-31T01:03:49.393Z,2.83
2022-07-31T01:06:19.539Z,2.67
2022-07-31T01:08:58.170Z,2.65
2022-07-31T01:11:52.202Z,2.25
2022-07-31T01:14:29.952Z,2.53
2022-07-31T01:17:01.614Z,2.83
2022-07-31T01:19:43.768Z,2.58
2022-07-31T01:22:49.973Z,2.70
2022-07-31T01:25:40.587Z,2.80
2022-07-31T01:29:10.124Z,2.80
2022-07-31T01:31:51.083Z,2.60
2022-07-31T01:34:37.052Z,2.67
2022-07-31T01:37:44.353Z,2.50
2022-07-31T01:40:20.500Z,2.53
2022-07-31T01:42:58.968Z,2.88
2022-07-31T01:45:30.918Z,2.55
2022-07-31T01:48:08.478Z,2.30
2022-07-31T01:50:44.415Z,2.72
2022-07-31T01:53:31.962Z,2.38
2022-07-31T01:56:15.273Z,2.50
2022-07-31T01:58:54.186Z,2.78
2022-07-31T02:01:52.788Z,2.78
2022-07-31T02:04:28.647Z,2.50
2022-07-31T02:07:10.331Z,2.40
2022-07-31T02:09:53.707Z,2.88
2022-07-31T02:12:34.093Z,3.45
2022-07-31T02:15:18.894Z,2.88
2022-07-31T02:17:54.740Z,3.08
2022-07-31T02:20:27.324Z,2.70
2022-07-31T02:23:02.566Z,2.80
2022-07-31T02:25:38.349Z,2.67
2022-07-31T02:28:13.551Z,3.05
2022-07-31T02:30:45.309Z,2.90
2022-07-31T02:33:25.667Z,2.90
2022-07-31T02:36:02.547Z,2.75
2022-07-31T02:38:33.891Z,2.63
2022-07-31T02:41:05.472Z,2.97
2022-07-31T02:43:38.943Z,2.97
2022-07-31T02:46:21.103Z,3.08
2022-07-31T02:49:01.978Z,2.90
2022-07-31T02:51:39.709Z,3.25
2022-07-31T02:54:14.755Z,2.70
2022-07-31T02:56:46.613Z,2.97
2022-07-31T02:59:14.783Z,3.30
2022-07-31T03:01:58.010Z,3.50
2022-07-31T03:04:26.503Z,3.47
2022-07-31T03:06:55.276Z,3.33
2022-07-31T03:09:25.386Z,3.10
2022-07-31T03:12:05.926Z,3.15
2022-07-31T03:14:37.700Z,3.42
2022-07-31T03:17:07.227Z,3.50
2022-07-31T03:19:38.965Z,3.58
2022-07-31T03:22:15.184Z,3.60
2022-07-31T03:24:52.922Z,3.85
2022-07-31T03:27:28.883Z,3.50
2022-07-31T03:29:59.330Z,3.50
2022-07-31T03:32:45.323Z,3.63
2022-07-31T03:35:19.943Z,3.45
2022-07-31T03:38:41.679Z,3.75
2022-07-31T03:41:42.366Z,3.47
2022-07-31T03:44:16.324Z,3.80
2022-07-31T03:46:43.950Z,3.40
2022-07-31T03:49:22.973Z,3.55
2022-07-31T03:52:08.614Z,3.35
2022-07-31T03:54:40.047Z,3.35
2022-07-31T03:57:34.199Z,3.05
2022-07-31T04:00:04.928Z,3.50
2022-07-31T04:02:47.332Z,3.30
2022-07-31T04:05:44.324Z,4.57
2022-07-31T04:08:16.237Z,3.80
2022-07-31T04:10:44.927Z,3.35
2022-07-31T04:13:18.774Z,3.33
2022-07-31T04:15:46.490Z,3.80
2022-07-31T04:18:14.804Z,4.13
2022-07-31T04:20:47.601Z,4.25
2022-07-31T04:23:23.765Z,4.25
2022-07-31T04:26:26.400Z,3.88
2022-07-31T04:29:04.654Z,4.43
2022-07-31T04:31:32.828Z,4.43
2022-07-31T04:34:03.036Z,4.38
2022-07-31T04:36:34.342Z,4.38
2022-07-31T04:39:04.422Z,4.68
2022-07-31T04:41:34.763Z,4.53
2022-07-31T04:44:02.605Z,4.70
2022-07-31T04:46:48.087Z,4.30
2022-07-31T04:49:20.805Z,4.35
2022-07-31T04:51:50.165Z,3.92
2022-07-31T04:54:20.591Z,3.72
2022-07-31T04:56:53.688Z,3.40
2022-07-31T04:59:59.150Z,3.78
2022-07-31T05:02:24.678Z,4.00
2022-07-31T05:05:00.789Z,3.53
2022-07-31T05:07:33.211Z,3.70
2022-07-31T05:10:10.473Z,3.67
2022-07-31T05:12:40.309Z,3.85
2022-07-31T05:15:11.632Z,3.83
2022-07-31T05:17:43.620Z,4.07
2022-07-31T05:20:39.203Z,4.22
2022-07-31T05:23:27.048Z,4.05
2022-07-31T05:26:26.872Z,4.55
2022-07-31T05:28:59.748Z,4.63
2022-07-31T05:31:32.443Z,4.60
2022-07-31T05:34:03.060Z,4.75
2022-07-31T05:36:30.827Z,5.10
2022-07-31T05:39:01.153Z,4.65
2022-07-31T05:41:42.950Z,4.85
2022-07-31T05:44:42.974Z,3.97
2022-07-31T05:47:11.080Z,5.32
2022-07-31T05:49:39.420Z,5.93
2022-07-31T05:52:07.397Z,5.93
2022-07-31T05:54:47.336Z,6.22
2022-07-31T05:57:34.397Z,5.93
2022-07-31T06:00:08.953Z,5.80
2022-07-31T06:02:40.215Z,5.35
2022-07-31T06:05:24.876Z,5.40
2022-07-31T06:07:55.195Z,6.20
2022-07-31T06:10:31.062Z,6.68
2022-07-31T06:12:58.929Z,5.93
2022-07-31T06:15:27.004Z,6.90
2022-07-31T06:17:56.151Z,6.25
2022-07-31T06:20:33.269Z,6.82
2022-07-31T06:23:22.596Z,7.00
2022-07-31T06:26:06.074Z,7.13
2022-07-31T06:28:48.723Z,7.35
2022-07-31T06:31:26.476Z,7.50
2022-07-31T06:34:04.664Z,9.02
2022-07-31T06:36:45.121Z,8.93
2022-07-31T06:39:22.866Z,8.85
2022-07-31T06:41:58.373Z,8.23
2022-07-31T06:44:32.807Z,9.55
2022-07-31T06:47:22.386Z,11.35
2022-07-31T06:50:13.627Z,9.90
2022-07-31T06:52:51.296Z,9.90
2022-07-31T06:55:25.219Z,10.52
2022-07-31T06:57:52.893Z,10.52
2022-07-31T07:00:24.589Z,11.02
2022-07-31T07:02:55.482Z,10.07
2022-07-31T07:05:23.234Z,10.35
2022-07-31T07:07:56.449Z,11.00
2022-07-31T07:10:25.001Z,9.93
2022-07-31T07:13:20.404Z,10.07
2022-07-31T07:15:49.699Z,10.18
2022-07-31T07:18:22.274Z,11.23
2022-07-31T07:20:53.249Z,10.50
2022-07-31T07:23:25.786Z,11.30
2022-07-31T07:26:11.808Z,11.30
2022-07-31T07:28:41.131Z,12.50
2022-07-31T07:31:16.424Z,12.43
2022-07-31T07:33:47.922Z,11.85
2022-07-31T07:36:24.372Z,9.80
2022-07-31T07:39:05.618Z,12.38
2022-07-31T07:41:38.823Z,12.52
2022-07-31T07:44:07.708Z,12.30
2022-07-31T07:46:38.443Z,12.63
2022-07-31T07:49:09.738Z,12.93
2022-07-31T07:52:03.238Z,11.50
2022-07-31T07:54:40.367Z,12.10
2022-07-31T07:57:26.689Z,12.98
2022-07-31T08:00:09.622Z,12.35
2022-07-31T08:03:46.536Z,10.60
2022-07-31T08:05:45.175Z,12.02
2022-07-31T08:08:12.184Z,12.18
2022-07-31T08:10:43.098Z,12.15
2022-07-31T08:13:23.478Z,13.13
2022-07-31T08:15:53.374Z,12.43
2022-07-31T08:18:28.621Z,13.77
2022-07-31T08:20:55.861Z,13.25
2022-07-31T08:23:22.674Z,14.77
2022-07-31T08:25:50.172Z,14.25
2022-07-31T08:28:23.943Z,13.60
2022-07-31T08:30:51.856Z,13.95
2022-07-31T08:33:21.876Z,14.23
2022-07-31T08:35:55.807Z,14.43
2022-07-31T08:38:22.881Z,13.02
2022-07-31T08:41:18.722Z,14.52
2022-07-31T08:44:01.647Z,14.45
2022-07-31T08:46:39.179Z,13.48
2022-07-31T08:49:09.782Z,14.07
2022-07-31T08:51:50.883Z,15.10
2022-07-31T08:54:26.182Z,15.80
2022-07-31T08:56:53.940Z,15.80
2022-07-31T08:59:22.199Z,14.50
2022-07-31T09:01:49.288Z,15.23
2022-07-31T09:04:16.353Z,15.40
2022-07-31T09:06:43.785Z,15.85
2022-07-31T09:09:10.596Z,15.68
2022-07-31T09:11:50.189Z,17.60
2022-07-31T09:14:47.202Z,16.75
2022-07-31T09:17:15.840Z,16.40
2022-07-31T09:19:53.881Z,17.08
2022-07-31T09:22:28.664Z,17.98
2022-07-31T09:25:16.009Z,16.70
2022-07-31T09:27:43.224Z,17.67
2022-07-31T09:30:11.676Z,18.10
2022-07-31T09:32:57.308Z,17.02
2022-07-31T09:35:52.490Z,18.13
2022-07-31T09:38:20.631Z,17.70
2022-07-31T09:41:56.258Z,17.13
2022-07-31T09:44:11.206Z,16.98
2022-07-31T09:46:41.878Z,17.15
2022-07-31T09:49:09.615Z,18.40
2022-07-31T09:51:49.740Z,18.85
2022-07-31T09:54:26.630Z,18.83
2022-07-31T09:57:12.278Z,18.40
2022-07-31T09:59:48.779Z,17.08
2022-07-31T10:02:19.149Z,14.18
2022-07-31T10:04:50.772Z,17.73
2022-07-31T10:07:31.993Z,14.93
2022-07-31T10:10:08.625Z,17.60
2022-07-31T10:13:05.627Z,15.73
2022-07-31T10:15:37.243Z,17.42
2022-07-31T10:18:36.494Z,16.25
2022-07-31T10:21:35.800Z,17.48
2022-07-31T10:24:19.886Z,16.50
2022-07-31T10:27:10.843Z,18.10
2022-07-31T10:29:41.744Z,18.77
2022-07-31T10:32:09.882Z,18.90
2022-07-31T10:34:45.772Z,19.17
2022-07-31T10:37:56.459Z,16.90
2022-07-31T10:41:03.936Z,18.20
2022-07-31T10:43:45.814Z,16.20
2022-07-31T10:46:38.183Z,15.30
2022-07-31T10:49:47.817Z,15.77
2022-07-31T10:52:37.060Z,14.93
2022-07-31T10:55:27.359Z,15.55
2022-07-31T10:58:19.744Z,15.32
2022-07-31T11:01:09.392Z,14.95
2022-07-31T11:03:46.689Z,15.32
2022-07-31T11:06:21.585Z,14.85
2022-07-31T11:08:55.321Z,15.35
2022-07-31T11:11:42.992Z,14.38
2022-07-31T11:14:34.881Z,15.43
2022-07-31T11:18:20.194Z,15.40
2022-07-31T11:20:32.297Z,14.70
2022-07-31T11:23:06.454Z,15.75
2022-07-31T11:25:37.062Z,14.23
2022-07-31T11:28:30.013Z,13.68
2022-07-31T11:31:00.238Z,15.23
2022-07-31T11:33:44.956Z,14.70
2022-07-31T11:36:27.067Z,15.23
2022-07-31T11:39:00.480Z,13.68
2022-07-31T11:41:30.306Z,14.93
2022-07-31T11:44:08.462Z,14.35
2022-07-31T11:46:37.958Z,13.35
2022-07-31T11:49:07.469Z,13.95
2022-07-31T11:51:34.317Z,12.27
2022-07-31T11:54:01.112Z,12.52
2022-07-31T11:56:28.653Z,11.60
2022-07-31T11:58:58.374Z,10.82
2022-07-31T12:01:28.923Z,14.63
2022-07-31T12:04:08.562Z,24.50
2022-07-31T12:06:37.191Z,12.40
2022-07-31T12:09:04.473Z,10.20
2022-07-31T12:11:31.577Z,10.88
2022-07-31T12:13:59.352Z,9.82
2022-07-31T12:16:39.531Z,10.30
2022-07-31T12:19:06.437Z,10.45
2022-07-31T12:21:40.485Z,9.73
2022-07-31T12:24:13.283Z,9.05
2022-07-31T12:26:53.755Z,8.98
2022-07-31T12:29:32.303Z,9.05
2022-07-31T12:31:59.748Z,8.88
2022-07-31T12:34:39.602Z,8.75
2022-07-31T12:37:22.298Z,9.05
2022-07-31T12:40:00.869Z,8.80
2022-07-31T12:42:41.890Z,8.90
2022-07-31T12:45:17.924Z,8.40
2022-07-31T12:47:51.134Z,7.82
2022-07-31T12:50:26.808Z,6.55
2022-07-31T12:52:57.079Z,5.47
2022-07-31T12:55:24.280Z,6.00
2022-07-31T12:57:52.239Z,5.65
2022-07-31T13:00:24.354Z,5.13
2022-07-31T13:02:53.655Z,6.00
2022-07-31T13:05:22.241Z,5.63
2022-07-31T13:07:49.899Z,5.43
2022-07-31T13:10:20.882Z,4.35
2022-07-31T13:12:52.218Z,4.55
2022-07-31T13:15:23.190Z,3.90
2022-07-31T13:17:50.345Z,4.80
2022-07-31T13:20:18.950Z,4.47
2022-07-31T13:22:45.752Z,3.88
2022-07-31T13:25:12.961Z,4.55
2022-07-31T13:27:41.477Z,3.95
2022-07-31T13:30:10.185Z,4.00
2022-07-31T13:32:37.299Z,4.15
2022-07-31T13:35:27.163Z,3.90
2022-07-31T13:37:53.728Z,3.70
2022-07-31T13:40:40.625Z,4.25
2022-07-31T13:43:07.576Z,3.53
2022-07-31T13:45:37.407Z,3.75
2022-07-31T13:48:09.254Z,3.47
2022-07-31T13:50:40.138Z,3.65
2022-07-31T13:53:07.718Z,3.63
2022-07-31T13:55:34.725Z,3.85
2022-07-31T13:58:06.112Z,4.78
2022-07-31T14:00:32.983Z,3.65
2022-07-31T14:03:00.005Z,3.78
2022-07-31T14:05:27.770Z,3.72
2022-07-31T14:07:56.338Z,3.33
2022-07-31T14:10:43.763Z,3.60
2022-07-31T14:13:16.628Z,3.45
2022-07-31T14:15:47.079Z,3.65
2022-07-31T14:18:14.242Z,3.30
2022-07-31T14:20:43.477Z,3.58
2022-07-31T14:23:10.536Z,3.67
2022-07-31T14:25:39.398Z,3.40
2022-07-31T14:28:08.582Z,3.35
2022-07-31T14:30:37.123Z,3.15
2022-07-31T14:33:05.103Z,2.92
2022-07-31T14:35:33.478Z,3.20
2022-07-31T14:38:03.907Z,3.15
2022-07-31T14:40:31.450Z,3.08
2022-07-31T14:42:58.866Z,2.85
2022-07-31T14:45:25.834Z,2.60
2022-07-31T14:47:55.077Z,3.13
2022-07-31T14:50:23.212Z,3.20
2022-07-31T14:52:50.291Z,3.50
2022-07-31T14:55:17.165Z,3.20
2022-07-31T14:57:43.935Z,3.08
2022-07-31T15:00:15.436Z,2.97
2022-07-31T15:02:43.378Z,3.40
2022-07-31T15:06:51.000Z,2.90
2022-07-31T15:07:59.336Z,3.08
2022-07-31T15:10:26.219Z,3.05
2022-07-31T15:12:58.955Z,3.17
2022-07-31T15:15:25.786Z,3.42
2022-07-31T15:17:56.788Z,3.58
2022-07-31T15:20:32.655Z,3.35
2022-07-31T15:22:59.957Z,4.35
2022-07-31T15:25:26.984Z,4.68
2022-07-31T15:27:53.800Z,4.30
2022-07-31T15:30:21.484Z,4.05
2022-07-31T15:32:48.459Z,5.00
2022-07-31T15:35:15.349Z,4.70
2022-07-31T15:37:44.749Z,4.13
2022-07-31T15:40:14.705Z,4.13
2022-07-31T15:42:45.836Z,4.05
2022-07-31T15:45:19.668Z,3.80
2022-07-31T15:47:47.848Z,4.93
2022-07-31T15:50:21.077Z,4.57
2022-07-31T15:52:49.528Z,5.07
2022-07-31T15:55:17.363Z,5.03
2022-07-31T15:57:46.908Z,4.60
2022-07-31T16:00:14.708Z,6.13
2022-07-31T16:02:43.004Z,6.68
2022-07-31T16:05:21.939Z,6.28
2022-07-31T16:08:29.794Z,6.47
2022-07-31T16:10:46.023Z,4.93
2022-07-31T16:13:12.783Z,5.65
2022-07-31T16:15:39.667Z,5.45
2022-07-31T16:18:06.574Z,6.65
2022-07-31T16:20:36.024Z,5.25
2022-07-31T16:23:02.947Z,5.40
2022-07-31T16:25:34.516Z,5.50
2022-07-31T16:28:04.086Z,4.60
2022-07-31T16:30:32.055Z,3.92
2022-07-31T16:32:59.008Z,4.55
2022-07-31T16:35:29.161Z,4.28
2022-07-31T16:37:56.144Z,4.35
2022-07-31T16:40:28.315Z,4.25
2022-07-31T16:43:50.540Z,4.70
2022-07-31T16:45:55.667Z,4.82
2022-07-31T16:48:23.088Z,4.15
2022-07-31T16:50:54.384Z,4.78
2022-07-31T16:54:10.755Z,4.82
2022-07-31T16:56:16.867Z,4.20
2022-07-31T16:58:43.984Z,4.60
2022-07-31T17:02:00.140Z,4.30
2022-07-31T17:04:04.250Z,4.15
2022-07-31T17:06:37.917Z,3.90
2022-07-31T17:09:16.346Z,3.97
2022-07-31T17:11:51.619Z,4.30
2022-07-31T17:14:21.380Z,4.50
2022-07-31T17:16:49.943Z,4.47
2022-07-31T17:19:41.881Z,4.47
2022-07-31T17:22:07.870Z,4.28
2022-07-31T17:24:37.305Z,4.70
2022-07-31T17:27:09.614Z,3.65
2022-07-31T17:29:38.336Z,3.95
2022-07-31T17:32:05.892Z,4.20
2022-07-31T17:34:35.288Z,3.47
2022-07-31T17:37:02.439Z,4.68
2022-07-31T17:39:31.146Z,4.15
2022-07-31T17:42:01.988Z,4.70
2022-07-31T17:44:29.627Z,4.43
2022-07-31T17:47:01.386Z,4.13
2022-07-31T17:49:32.748Z,4.35
2022-07-31T17:52:00.498Z,3.92
2022-07-31T17:54:30.133Z,4.32
2022-07-31T17:56:57.238Z,4.65
2022-07-31T17:59:25.256Z,4.10
2022-07-31T18:01:59.614Z,4.05
2022-07-31T18:04:29.816Z,3.60
2022-07-31T18:06:58.550Z,3.25
2022-07-31T18:09:26.994Z,4.15
2022-07-31T18:11:54.684Z,4.43
2022-07-31T18:14:24.447Z,3.63
2022-07-31T18:16:52.415Z,3.78
2022-07-31T18:19:21.221Z,3.88
2022-07-31T18:21:48.517Z,3.58
2022-07-31T18:24:15.319Z,4.43
2022-07-31T18:26:44.398Z,5.07
2022-07-31T18:29:11.326Z,3.83
2022-07-31T18:31:38.534Z,3.67
2022-07-31T18:34:06.504Z,4.00
2022-07-31T18:36:35.001Z,3.47
2022-07-31T18:39:03.427Z,4.35
2022-07-31T18:41:30.966Z,4.47
2022-07-31T18:44:01.559Z,3.83
2022-07-31T18:46:28.971Z,4.00
2022-07-31T18:48:59.234Z,4.60
2022-07-31T18:51:28.523Z,5.18
2022-07-31T18:54:07.496Z,4.65
2022-07-31T18:56:34.443Z,4.30
2022-07-31T18:59:01.290Z,4.00
2022-07-31T19:01:28.125Z,5.00
2022-07-31T19:03:55.272Z,4.30
2022-07-31T19:06:25.451Z,4.93
2022-07-31T19:08:52.645Z,3.80
2022-07-31T19:11:20.487Z,4.38
2022-07-31T19:13:47.328Z,4.93
2022-07-31T19:16:15.767Z,4.78
2022-07-31T19:18:44.971Z,4.22
2022-07-31T19:21:22.618Z,4.65
2022-07-31T19:24:01.923Z,4.85
2022-07-31T19:26:30.976Z,4.55
2022-07-31T19:28:57.784Z,4.47
2022-07-31T19:31:24.582Z,5.15
2022-07-31T19:33:51.396Z,4.55
2022-07-31T19:36:18.179Z,4.85
2022-07-31T19:38:45.079Z,4.32
2022-07-31T19:41:13.625Z,3.80
2022-07-31T19:43:40.629Z,5.80
2022-07-31T19:46:11.728Z,5.10
2022-07-31T19:48:45.276Z,4.40
2022-07-31T19:51:15.649Z,4.57
2022-07-31T19:53:44.467Z,5.38
2022-07-31T19:56:19.697Z,4.72
2022-07-31T19:58:47.759Z,4.82
2022-07-31T20:01:14.631Z,5.35
2022-07-31T20:03:41.864Z,5.55
2022-07-31T20:06:09.064Z,4.53
2022-07-31T20:08:36.102Z,5.80
2022-07-31T20:11:04.557Z,5.28
2022-07-31T20:13:37.556Z,4.90
2022-07-31T20:16:04.921Z,4.07
2022-07-31T20:18:31.738Z,4.93
2022-07-31T20:21:09.146Z,4.95
2022-07-31T20:23:44.203Z,4.65
2022-07-31T20:26:16.240Z,4.13
2022-07-31T20:28:44.225Z,4.53
2022-07-31T20:31:18.430Z,4.75
2022-07-31T20:33:56.457Z,4.18
2022-07-31T20:36:26.509Z,4.90
2022-07-31T20:38:58.605Z,3.90
2022-07-31T20:41:27.279Z,4.95
2022-07-31T20:43:56.876Z,4.20
2022-07-31T20:46:27.609Z,4.80
2022-07-31T20:48:57.134Z,4.80
2022-07-31T20:51:24.404Z,4.30
2022-07-31T20:53:55.753Z,4.78
2022-07-31T20:56:23.146Z,4.82
2022-07-31T20:58:51.914Z,4.65
2022-07-31T21:01:20.423Z,4.70
2022-07-31T21:03:47.843Z,4.10
2022-07-31T21:06:14.930Z,5.03
2022-07-31T21:08:45.551Z,4.45
2022-07-31T21:11:12.532Z,4.30
2022-07-31T21:13:39.920Z,3.92
2022-07-31T21:16:09.308Z,4.20
2022-07-31T21:18:39.974Z,4.75
2022-07-31T21:21:09.510Z,4.55
2022-07-31T21:23:38.665Z,4.53
2022-07-31T21:26:07.590Z,4.50
2022-07-31T21:28:35.184Z,4.38
2022-07-31T21:31:02.293Z,5.57
2022-07-31T21:33:29.318Z,5.20
2022-07-31T21:35:56.706Z,5.90
2022-07-31T21:38:24.498Z,5.45
2022-07-31T21:40:51.840Z,5.85
2022-07-31T21:43:22.517Z,6.15
2022-07-31T21:45:57.733Z,6.22
2022-07-31T21:48:31.074Z,5.90
2022-07-31T21:51:00.077Z,6.30
2022-07-31T21:53:27.278Z,5.10
2022-07-31T21:55:54.118Z,6.13
2022-07-31T21:58:20.921Z,5.50
2022-07-31T22:00:47.961Z,5.72
2022-07-31T22:03:14.878Z,6.00
2022-07-31T22:06:00.411Z,4.93
2022-07-31T22:08:27.488Z,4.80
2022-07-31T22:10:54.421Z,5.28
2022-07-31T22:13:21.496Z,5.03
2022-07-31T22:15:50.535Z,4.85
2022-07-31T22:18:32.543Z,4.57
2022-07-31T22:21:01.910Z,4.45
2022-07-31T22:23:29.555Z,3.65
2022-07-31T22:25:57.077Z,3.28
2022-07-31T22:28:26.713Z,3.55
2022-07-31T22:30:56.018Z,3.30
2022-07-31T22:33:23.623Z,2.63
2022-07-31T22:35:59.633Z,2.75
2022-07-31T22:38:29.477Z,2.65
2022-07-31T22:40:57.746Z,2.83
2022-07-31T22:44:10.985Z,2.58
2022-07-31T22:46:13.371Z,2.55
2022-07-31T22:48:40.827Z,2.85
2022-07-31T22:51:09.049Z,2.65
2022-07-31T22:53:37.616Z,2.70
2022-07-31T22:56:04.687Z,2.58
2022-07-31T22:58:31.759Z,2.60
2022-07-31T23:00:58.575Z,2.70
2022-07-31T23:03:25.403Z,2.42
2022-07-31T23:06:28.045Z,2.35
2022-07-31T23:08:39.020Z,2.33
2022-07-31T23:11:05.927Z,2.75
2022-07-31T23:13:32.763Z,2.35
2022-07-31T23:15:59.743Z,2.45
2022-07-31T23:18:27.451Z,1.85
2022-07-31T23:20:54.241Z,2.70
2022-07-31T23:23:21.053Z,2.60
2022-07-31T23:25:47.820Z,2.20
2022-07-31T23:28:14.599Z,2.47
2022-07-31T23:30:41.409Z,2.55
2022-07-31T23:33:08.217Z,2.35
2022-07-31T23:35:38.496Z,2.60
2022-07-31T23:38:05.286Z,2.63
2022-07-31T23:40:32.193Z,2.22
2022-07-31T23:42:59.013Z,2.70
2022-07-31T23:45:26.094Z,2.25
2022-07-31T23:47:54.487Z,2.88
2022-07-31T23:50:25.977Z,2.58
2022-07-31T23:52:52.992Z,2.65
2022-07-31T23:55:20.089Z,2.72
2022-07-31T23:57:47.624Z,3.15
